createdAt,value
2014-10-13T00:00:18.115Z,16.82
2014-10-13T00:01:22.820Z,16.79
2014-10-13T00:02:27.526Z,16.94
2014-10-13T00:03:32.232Z,16.85
2014-10-13T00:04:36.952Z,16.65
2014-10-13T00:05:41.642Z,16.57
2014-10-13T00:06:46.331Z,16.66
2014-10-13T00:07:51.037Z,16.67
2014-10-13T00:08:55.726Z,16.63
2014-10-13T00:10:00.431Z,16.74
2014-10-13T00:11:05.121Z,16.8
2014-10-13T00:12:09.826Z,16.57
2014-10-13T00:13:14.532Z,16.44
2014-10-13T00:14:19.220Z,16.46
2014-10-13T00:15:23.926Z,16.28
2014-10-13T00:16:28.632Z,16.16
2014-10-13T00:17:32.634Z,16.16
2014-10-13T00:18:37.322Z,16.09
2014-10-13T00:19:42.027Z,16.17
2014-10-13T00:20:46.718Z,16.21
2014-10-13T00:21:51.423Z,15.9
2014-10-13T00:22:56.112Z,16.29
2014-10-13T00:24:00.818Z,16.65
2014-10-13T00:25:05.507Z,16.62
2014-10-13T00:26:10.212Z,16.47
2014-10-13T00:27:15.199Z,16.33
2014-10-13T00:28:19.889Z,16.34
2014-10-13T00:29:24.593Z,16.42
2014-10-13T00:30:29.580Z,16.31
2014-10-13T00:31:34.286Z,16.44
2014-10-13T00:32:38.974Z,16.48
2014-10-13T00:33:43.679Z,16.68
2014-10-13T00:34:48.370Z,16.5
2014-10-13T00:35:53.371Z,16.54
2014-10-13T00:36:58.358Z,16.49
2014-10-13T00:38:03.048Z,16.49
2014-10-13T00:39:07.753Z,16.46
2014-10-13T00:40:12.442Z,16.64
2014-10-13T00:41:17.147Z,16.81
2014-10-13T00:42:22.134Z,16.66
2014-10-13T00:43:26.823Z,16.52
2014-10-13T00:44:31.825Z,16.43
2014-10-13T00:45:36.812Z,16.53
2014-10-13T00:46:40.814Z,16.51
2014-10-13T00:47:44.817Z,16.55
2014-10-13T00:48:49.803Z,16.52
2014-10-13T00:49:54.507Z,16.58
2014-10-13T00:50:59.213Z,16.59
2014-10-13T00:52:03.903Z,16.68
2014-10-13T00:53:08.608Z,16.52
2014-10-13T00:54:13.297Z,16.64
2014-10-13T00:55:18.003Z,16.58
2014-10-13T00:56:22.692Z,16.6
2014-10-13T00:57:27.397Z,16.62
2014-10-13T00:58:32.102Z,16.65
2014-10-13T00:59:36.792Z,16.39
2014-10-13T01:00:41.497Z,16.36
2014-10-13T01:01:46.186Z,16.22
2014-10-13T01:02:50.893Z,16.41
2014-10-13T01:03:55.582Z,16.5
2014-10-13T01:05:00.583Z,16.51
2014-10-13T01:06:05.274Z,16.4
2014-10-13T01:07:09.979Z,16.3
2014-10-13T01:08:14.667Z,16.33
2014-10-13T01:09:19.373Z,16.52
2014-10-13T01:10:24.360Z,16.52
2014-10-13T01:11:29.065Z,16.55
2014-10-13T01:12:33.754Z,16.36
2014-10-13T01:13:38.459Z,16.38
2014-10-13T01:14:43.150Z,16.44
2014-10-13T01:15:47.854Z,16.48
2014-10-13T01:16:52.840Z,16.52
2014-10-13T01:17:57.531Z,16.52
2014-10-13T01:19:02.532Z,16.29
2014-10-13T01:20:07.221Z,16.38
2014-10-13T01:21:11.928Z,16.44
2014-10-13T01:22:16.617Z,16.46
2014-10-13T01:23:21.337Z,16.4
2014-10-13T01:24:26.324Z,16.03
2014-10-13T01:25:31.014Z,16.03
2014-10-13T01:26:35.719Z,16.15
2014-10-13T01:27:40.424Z,16.18
2014-10-13T01:28:45.113Z,16.31
2014-10-13T01:29:49.820Z,16.42
2014-10-13T01:30:54.509Z,16.53
2014-10-13T01:31:59.213Z,16.65
2014-10-13T01:33:03.904Z,16.74
2014-10-13T01:34:08.608Z,16.91
2014-10-13T01:35:13.297Z,16.73
2014-10-13T01:36:18.003Z,16.56
2014-10-13T01:37:22.693Z,16.47
2014-10-13T01:38:27.398Z,16.42
2014-10-13T01:39:32.088Z,16.39
2014-10-13T01:40:36.793Z,16.4
2014-10-13T01:41:41.482Z,16.41
2014-10-13T01:42:46.187Z,16.5
2014-10-13T01:43:50.877Z,16.52
2014-10-13T01:44:55.583Z,16.46
2014-10-13T01:46:00.568Z,16.57
2014-10-13T01:47:05.274Z,16.73
2014-10-13T01:48:09.980Z,16.71
2014-10-13T01:49:14.685Z,16.77
2014-10-13T01:50:19.373Z,16.91
2014-10-13T01:51:24.078Z,16.92
2014-10-13T01:52:28.784Z,16.72
2014-10-13T01:53:33.490Z,16.54
2014-10-13T01:54:38.179Z,16.36
2014-10-13T01:55:43.181Z,16.45
2014-10-13T01:56:47.871Z,16.5
2014-10-13T01:57:52.873Z,16.49
2014-10-13T01:58:57.563Z,16.52
2014-10-13T02:00:02.548Z,16.52
2014-10-13T02:01:07.254Z,16.78
2014-10-13T02:02:11.960Z,16.78
2014-10-13T02:03:16.648Z,16.56
2014-10-13T02:04:21.353Z,16.48
2014-10-13T02:05:26.059Z,16.47
2014-10-13T02:06:30.765Z,16.46
2014-10-13T02:07:35.470Z,16.48
2014-10-13T02:08:40.158Z,16.5
2014-10-13T02:09:44.880Z,16.75
2014-10-13T02:10:49.569Z,17.07
2014-10-13T02:11:54.275Z,17.09
2014-10-13T02:12:58.995Z,17
2014-10-13T02:14:03.700Z,16.82
2014-10-13T02:15:08.407Z,16.7
2014-10-13T02:16:12.408Z,16.64
2014-10-13T02:17:17.113Z,16.63
2014-10-13T02:18:21.819Z,16.47
2014-10-13T02:19:26.523Z,16.54
2014-10-13T02:20:31.509Z,16.34
2014-10-13T02:21:36.214Z,16.22
2014-10-13T02:22:40.921Z,16.2
2014-10-13T02:23:45.626Z,16.24
2014-10-13T02:24:50.330Z,16.18
2014-10-13T02:25:55.036Z,16.14
2014-10-13T02:26:59.725Z,15.99
2014-10-13T02:28:03.744Z,16.09
2014-10-13T02:29:08.448Z,16
2014-10-13T02:30:13.138Z,15.89
2014-10-13T02:31:17.858Z,15.94
2014-10-13T02:32:22.565Z,15.94
2014-10-13T02:33:27.269Z,15.44
2014-10-13T02:34:31.975Z,15.49
2014-10-13T02:35:36.679Z,15.74
2014-10-13T02:36:41.682Z,15.66
2014-10-13T02:37:46.387Z,15.85
2014-10-13T02:38:51.091Z,15.8
2014-10-13T02:39:55.797Z,15.79
2014-10-13T02:41:00.502Z,15.86
2014-10-13T02:42:05.208Z,15.84
2014-10-13T02:43:09.898Z,15.66
2014-10-13T02:44:14.602Z,15.56
2014-10-13T02:45:19.354Z,15.66
2014-10-13T02:46:24.044Z,15.75
2014-10-13T02:47:29.031Z,15.69
2014-10-13T02:48:33.735Z,15.44
2014-10-13T02:49:38.426Z,15.1
2014-10-13T02:50:43.114Z,14.99
2014-10-13T02:51:47.819Z,15.29
2014-10-13T02:52:52.510Z,15.74
2014-10-13T02:53:57.495Z,15.9
2014-10-13T02:55:02.498Z,16
2014-10-13T02:56:07.188Z,16.24
2014-10-13T02:57:12.174Z,15.98
2014-10-13T02:58:16.864Z,15.92
2014-10-13T02:59:21.866Z,15.88
2014-10-13T03:00:26.556Z,16.09
2014-10-13T03:01:31.260Z,16.01
2014-10-13T03:02:35.950Z,16.02
2014-10-13T03:03:40.937Z,16.12
2014-10-13T03:04:45.641Z,15.82
2014-10-13T03:05:50.332Z,15.78
2014-10-13T03:06:55.020Z,15.98
2014-10-13T03:07:59.725Z,16.02
2014-10-13T03:09:04.416Z,15.82
2014-10-13T03:10:09.121Z,15.6
2014-10-13T03:11:13.810Z,15.55
2014-10-13T03:12:17.812Z,15.6
2014-10-13T03:13:22.518Z,15.5
2014-10-13T03:14:27.223Z,15.41
2014-10-13T03:15:32.210Z,15.48
2014-10-13T03:16:36.899Z,15.47
2014-10-13T03:17:41.886Z,15.82
2014-10-13T03:18:46.591Z,16.02
2014-10-13T03:19:51.280Z,16.02
2014-10-13T03:20:55.986Z,15.76
2014-10-13T03:22:00.674Z,15.53
2014-10-13T03:23:05.380Z,15.64
2014-10-13T03:24:10.070Z,15.68
2014-10-13T03:25:14.775Z,15.76
2014-10-13T03:26:19.464Z,15.84
2014-10-13T03:27:24.170Z,15.97
2014-10-13T03:28:29.156Z,16
2014-10-13T03:29:34.142Z,15.78
2014-10-13T03:30:38.847Z,15.64
2014-10-13T03:31:43.538Z,15.36
2014-10-13T03:32:48.242Z,15.36
2014-10-13T03:33:52.932Z,15.36
2014-10-13T03:34:57.919Z,15.46
2014-10-13T03:36:02.623Z,15.28
2014-10-13T03:37:07.314Z,15.24
2014-10-13T03:38:12.003Z,15.36
2014-10-13T03:39:17.005Z,15.32
2014-10-13T03:40:21.710Z,15.28
2014-10-13T03:41:26.400Z,15.27
2014-10-13T03:42:31.105Z,15.19
2014-10-13T03:43:35.794Z,14.87
2014-10-13T03:44:40.499Z,15.09
2014-10-13T03:45:45.190Z,15.24
2014-10-13T03:46:50.191Z,15.41
2014-10-13T03:47:54.880Z,15.41
2014-10-13T03:48:59.587Z,15.32
2014-10-13T03:50:04.276Z,15.34
2014-10-13T03:51:09.261Z,15.3
2014-10-13T03:52:13.952Z,15.31
2014-10-13T03:53:18.657Z,15.33
2014-10-13T03:54:23.347Z,15.46
2014-10-13T03:55:28.052Z,15.41
2014-10-13T03:56:32.741Z,15.33
2014-10-13T03:57:37.446Z,15.28
2014-10-13T03:58:42.136Z,15.18
2014-10-13T03:59:46.841Z,15.1
2014-10-13T04:00:51.530Z,15.2
2014-10-13T04:01:56.518Z,15.22
2014-10-13T04:03:01.206Z,15.17
2014-10-13T04:04:05.927Z,15.15
2014-10-13T04:05:10.617Z,15.07
2014-10-13T04:06:15.307Z,15.19
2014-10-13T04:07:20.012Z,15.13
2014-10-13T04:08:24.999Z,15.16
2014-10-13T04:09:29.688Z,15.11
2014-10-13T04:10:34.378Z,15.1
2014-10-13T04:11:39.083Z,15.24
2014-10-13T04:12:43.772Z,15.19
2014-10-13T04:13:48.462Z,15.02
2014-10-13T04:14:53.167Z,14.94
2014-10-13T04:15:57.856Z,14.8
2014-10-13T04:17:02.843Z,14.98
2014-10-13T04:18:07.548Z,14.92
2014-10-13T04:19:11.832Z,14.99
2014-10-13T04:20:16.536Z,15.37
2014-10-13T04:21:21.227Z,15.46
2014-10-13T04:22:25.931Z,15.62
2014-10-13T04:23:30.620Z,15.94
2014-10-13T04:24:35.326Z,15.98
2014-10-13T04:25:40.016Z,15.74
2014-10-13T04:26:44.705Z,15.72
2014-10-13T04:27:49.411Z,15.8
2014-10-13T04:28:54.117Z,15.68
2014-10-13T04:29:58.821Z,15.71
2014-10-13T04:31:03.510Z,15.61
2014-10-13T04:32:08.215Z,15.61
2014-10-13T04:33:12.906Z,15.42
2014-10-13T04:34:17.611Z,15.46
2014-10-13T04:35:22.300Z,15.1
2014-10-13T04:36:27.287Z,15.23
2014-10-13T04:37:31.992Z,15.45
2014-10-13T04:38:36.697Z,15.52
2014-10-13T04:39:41.387Z,15.4
2014-10-13T04:40:46.107Z,15.52
2014-10-13T04:41:50.797Z,15.5
2014-10-13T04:42:55.502Z,15.59
2014-10-13T04:44:00.192Z,15.56
2014-10-13T04:45:04.898Z,15.5
2014-10-13T04:46:08.899Z,15.32
2014-10-13T04:47:13.604Z,15.19
2014-10-13T04:48:18.293Z,15.25
2014-10-13T04:49:22.998Z,15.36
2014-10-13T04:50:27.704Z,15.36
2014-10-13T04:51:32.706Z,15.4
2014-10-13T04:52:37.412Z,15.39
2014-10-13T04:53:42.414Z,15.51
2014-10-13T04:54:47.118Z,15.5
2014-10-13T04:55:51.808Z,15.38
2014-10-13T04:56:55.826Z,15.34
2014-10-13T04:58:00.812Z,15.26
2014-10-13T04:59:05.517Z,15.29
2014-10-13T05:00:10.223Z,15.36
2014-10-13T05:01:14.929Z,15.42
2014-10-13T05:02:19.617Z,15.3
2014-10-13T05:03:24.322Z,15.24
2014-10-13T05:04:29.028Z,14.98
2014-10-13T05:05:33.734Z,15.14
2014-10-13T05:06:38.423Z,15.2
2014-10-13T05:07:43.127Z,15.36
2014-10-13T05:08:47.833Z,15.4
2014-10-13T05:09:52.538Z,15.38
2014-10-13T05:10:57.244Z,15.47
2014-10-13T05:12:01.949Z,15.5
2014-10-13T05:13:06.638Z,15.74
2014-10-13T05:14:11.343Z,16.05
2014-10-13T05:15:16.345Z,16.14
2014-10-13T05:16:21.050Z,16.12
2014-10-13T05:17:25.756Z,16.15
2014-10-13T05:18:30.461Z,16.06
2014-10-13T05:19:35.166Z,15.93
2014-10-13T05:20:39.871Z,15.92
2014-10-13T05:21:44.560Z,15.82
2014-10-13T05:22:49.281Z,15.74
2014-10-13T05:23:53.986Z,15.72
2014-10-13T05:24:58.692Z,15.74
2014-10-13T05:26:02.694Z,15.89
2014-10-13T05:27:07.400Z,15.9
2014-10-13T05:28:12.120Z,15.92
2014-10-13T05:29:16.810Z,15.97
2014-10-13T05:30:21.515Z,16.05
2014-10-13T05:31:26.501Z,16.3
2014-10-13T05:32:31.191Z,16.42
2014-10-13T05:33:35.897Z,16.3
2014-10-13T05:34:40.882Z,16.08
2014-10-13T05:35:45.573Z,16.05
2014-10-13T05:36:50.278Z,16.07
2014-10-13T05:37:54.966Z,16.06
2014-10-13T05:38:59.969Z,15.89
2014-10-13T05:40:04.659Z,16.08
2014-10-13T05:41:09.644Z,16.36
2014-10-13T05:42:14.350Z,16.44
2014-10-13T05:43:19.040Z,16.5
2014-10-13T05:44:23.745Z,16.58
2014-10-13T05:45:28.731Z,16.42
2014-10-13T05:46:33.437Z,16.27
2014-10-13T05:47:38.127Z,16.12
2014-10-13T05:48:42.831Z,16.17
2014-10-13T05:49:47.819Z,16.2
2014-10-13T05:50:52.508Z,16.16
2014-10-13T05:51:57.212Z,16.04
2014-10-13T05:53:01.903Z,16.17
2014-10-13T05:54:06.608Z,16.26
2014-10-13T05:55:11.296Z,16.27
2014-10-13T05:56:16.284Z,16.24
2014-10-13T05:57:20.989Z,16.24
2014-10-13T05:58:25.991Z,16.22
2014-10-13T05:59:30.680Z,16.14
2014-10-13T06:00:35.385Z,16.06
2014-10-13T06:01:40.075Z,16.12
2014-10-13T06:02:44.780Z,16.16
2014-10-13T06:03:49.470Z,16.2
2014-10-13T06:04:54.160Z,16.08
2014-10-13T06:05:58.864Z,16.16
2014-10-13T06:07:03.555Z,16.16
2014-10-13T06:08:08.243Z,16.23
2014-10-13T06:09:12.948Z,16.22
2014-10-13T06:10:17.639Z,16.17
2014-10-13T06:11:22.641Z,16.2
2014-10-13T06:12:27.330Z,16.2
2014-10-13T06:13:32.035Z,16.22
2014-10-13T06:14:36.725Z,16.38
2014-10-13T06:15:41.431Z,16.28
2014-10-13T06:16:46.416Z,16.43
2014-10-13T06:17:51.123Z,16.54
2014-10-13T06:18:56.109Z,16.42
2014-10-13T06:20:00.813Z,16.68
2014-10-13T06:21:04.816Z,16.82
2014-10-13T06:22:09.520Z,16.84
2014-10-13T06:23:14.226Z,17.12
2014-10-13T06:24:19.213Z,16.99
2014-10-13T06:25:23.901Z,17.16
2014-10-13T06:26:28.607Z,17.06
2014-10-13T06:27:33.297Z,16.84
2014-10-13T06:28:38.002Z,16.76
2014-10-13T06:29:42.691Z,16.76
2014-10-13T06:30:47.397Z,16.75
2014-10-13T06:31:52.383Z,16.76
2014-10-13T06:32:57.089Z,16.92
2014-10-13T06:34:01.778Z,16.94
2014-10-13T06:35:06.483Z,16.76
2014-10-13T06:36:11.470Z,16.81
2014-10-13T06:37:16.455Z,16.98
2014-10-13T06:38:21.458Z,17.04
2014-10-13T06:39:26.445Z,17.02
2014-10-13T06:40:31.133Z,17.87
2014-10-13T06:41:35.839Z,19.27
2014-10-13T06:42:40.545Z,19.59
2014-10-13T06:43:45.234Z,19.55
2014-10-13T06:44:49.939Z,19.21
2014-10-13T06:45:54.629Z,20.31
2014-10-13T06:46:59.349Z,21.06
2014-10-13T06:48:04.040Z,20.06
2014-10-13T06:49:09.042Z,19.32
2014-10-13T06:50:14.027Z,18.74
2014-10-13T06:51:18.732Z,18.4
2014-10-13T06:52:23.439Z,18.25
2014-10-13T06:53:28.128Z,18.2
2014-10-13T06:54:32.832Z,17.52
2014-10-13T06:55:37.538Z,17.32
2014-10-13T06:56:42.525Z,16.98
2014-10-13T06:57:47.229Z,16.7
2014-10-13T06:58:51.919Z,16.88
2014-10-13T06:59:56.624Z,17
2014-10-13T07:01:01.611Z,17.31
2014-10-13T07:02:06.333Z,17.3
2014-10-13T07:03:11.022Z,17.28
2014-10-13T07:04:15.726Z,17.31
2014-10-13T07:05:19.745Z,17.3
2014-10-13T07:06:24.449Z,17.2
2014-10-13T07:07:29.154Z,17.08
2014-10-13T07:08:33.860Z,16.97
2014-10-13T07:09:38.564Z,17.32
2014-10-13T07:10:43.270Z,17.44
2014-10-13T07:11:47.304Z,17.66
2014-10-13T07:12:52.009Z,17.71
2014-10-13T07:13:56.714Z,17.6
2014-10-13T07:15:01.419Z,17.6
2014-10-13T07:16:06.124Z,17.61
2014-10-13T07:17:10.829Z,17.67
2014-10-13T07:18:15.534Z,17.55
2014-10-13T07:19:20.240Z,17.54
2014-10-13T07:20:24.945Z,17.54
2014-10-13T07:21:29.651Z,17.53
2014-10-13T07:22:34.356Z,17.54
2014-10-13T07:23:39.060Z,17.69
2014-10-13T07:24:43.766Z,17.52
2014-10-13T07:25:48.470Z,17.47
2014-10-13T07:26:53.176Z,17.33
2014-10-13T07:27:57.882Z,17.39
2014-10-13T07:29:02.868Z,17.52
2014-10-13T07:30:07.573Z,17.35
2014-10-13T07:31:12.278Z,17.53
2014-10-13T07:32:16.983Z,17.27
2014-10-13T07:33:21.688Z,17.22
2014-10-13T07:34:26.409Z,17.14
2014-10-13T07:35:31.114Z,17.27
2014-10-13T07:36:35.820Z,17.5
2014-10-13T07:37:40.526Z,17.54
2014-10-13T07:38:45.231Z,17.49
2014-10-13T07:39:50.217Z,17.53
2014-10-13T07:40:54.937Z,17.34
2014-10-13T07:41:59.643Z,17.28
2014-10-13T07:43:04.348Z,17.42
2014-10-13T07:44:09.053Z,17.48
2014-10-13T07:45:13.743Z,17.76
2014-10-13T07:46:18.448Z,17.91
2014-10-13T07:47:23.137Z,17.86
2014-10-13T07:48:27.155Z,17.64
2014-10-13T07:49:31.844Z,17.64
2014-10-13T07:50:36.551Z,17.84
2014-10-13T07:51:41.251Z,17.95
2014-10-13T07:52:45.999Z,17.98
2014-10-13T07:53:50.733Z,17.96
2014-10-13T07:54:55.779Z,17.95
2014-10-13T07:56:00.511Z,17.94
2014-10-13T07:57:05.242Z,17.86
2014-10-13T07:58:09.948Z,18.03
2014-10-13T07:59:14.669Z,18.16
2014-10-13T08:00:19.373Z,18.24
2014-10-13T08:01:24.096Z,18.26
2014-10-13T08:02:29.088Z,18.3
2014-10-13T08:03:33.782Z,18.14
2014-10-13T08:04:38.494Z,18.08
2014-10-13T08:05:43.205Z,18.12
2014-10-13T08:06:47.898Z,17.99
2014-10-13T08:07:52.606Z,18.1
2014-10-13T08:08:57.298Z,18.14
2014-10-13T08:10:02.005Z,18.24
2014-10-13T08:11:06.712Z,18.3
2014-10-13T08:12:11.403Z,18.32
2014-10-13T08:13:16.109Z,18.37
2014-10-13T08:14:20.798Z,18.27
2014-10-13T08:15:25.503Z,18.08
2014-10-13T08:16:30.209Z,18.16
2014-10-13T08:17:34.758Z,18.34
2014-10-13T08:18:39.449Z,18.39
2014-10-13T08:19:44.155Z,18.3
2014-10-13T08:20:48.844Z,17.9
2014-10-13T08:21:53.550Z,17.85
2014-10-13T08:22:58.240Z,18.09
2014-10-13T08:24:02.944Z,18.35
2014-10-13T08:25:07.649Z,18.13
2014-10-13T08:26:12.637Z,17.7
2014-10-13T08:27:17.325Z,17.76
2014-10-13T08:28:22.030Z,17.94
2014-10-13T08:29:26.736Z,17.62
2014-10-13T08:30:31.723Z,17.52
2014-10-13T08:31:36.412Z,17.64
2014-10-13T08:32:41.117Z,17.64
2014-10-13T08:33:45.807Z,18.01
2014-10-13T08:34:50.513Z,17.84
2014-10-13T08:35:55.202Z,17.52
2014-10-13T08:36:59.908Z,17.47
2014-10-13T08:38:04.596Z,17.36
2014-10-13T08:39:08.598Z,17.58
2014-10-13T08:40:13.319Z,17.6
2014-10-13T08:41:18.024Z,17.84
2014-10-13T08:42:23.010Z,18.24
2014-10-13T08:43:27.717Z,18
2014-10-13T08:44:32.406Z,17.84
2014-10-13T08:45:37.110Z,17.94
2014-10-13T08:46:41.816Z,17.91
2014-10-13T08:47:46.521Z,17.86
2014-10-13T08:48:51.211Z,17.87
2014-10-13T08:49:56.213Z,17.9
2014-10-13T08:51:01.199Z,17.72
2014-10-13T08:52:05.904Z,17.72
2014-10-13T08:53:10.892Z,17.75
2014-10-13T08:54:15.596Z,17.74
2014-10-13T08:55:20.285Z,17.6
2014-10-13T08:56:25.287Z,17.48
2014-10-13T08:57:29.994Z,17.62
2014-10-13T08:58:34.699Z,17.73
2014-10-13T08:59:39.403Z,17.94
2014-10-13T09:00:44.109Z,18.1
2014-10-13T09:01:48.798Z,18.26
2014-10-13T09:02:53.519Z,18.19
2014-10-13T09:03:58.224Z,18.48
2014-10-13T09:05:02.945Z,18.58
2014-10-13T09:06:07.635Z,18.44
2014-10-13T09:07:12.637Z,18.64
2014-10-13T09:08:17.342Z,18.78
2014-10-13T09:09:22.048Z,18.75
2014-10-13T09:10:26.752Z,18.81
2014-10-13T09:11:31.458Z,18.8
2014-10-13T09:12:36.163Z,18.91
2014-10-13T09:13:40.868Z,18.87
2014-10-13T09:14:45.573Z,18.77
2014-10-13T09:15:50.279Z,18.91
2014-10-13T09:16:54.984Z,18.92
2014-10-13T09:17:59.720Z,18.9
2014-10-13T09:19:04.425Z,19.04
2014-10-13T09:20:09.130Z,19.01
2014-10-13T09:21:13.835Z,19.13
2014-10-13T09:22:18.541Z,18.96
2014-10-13T09:23:23.246Z,19.09
2014-10-13T09:24:27.967Z,18.93
2014-10-13T09:25:32.954Z,19.11
2014-10-13T09:26:37.675Z,18.81
2014-10-13T09:27:42.394Z,18.9
2014-10-13T09:28:47.397Z,19.06
2014-10-13T09:29:52.087Z,19.28
2014-10-13T09:30:57.089Z,19
2014-10-13T09:32:01.794Z,18.86
2014-10-13T09:33:06.499Z,18.98
2014-10-13T09:34:11.502Z,18.98
2014-10-13T09:35:16.206Z,19.1
2014-10-13T09:36:20.911Z,18.97
2014-10-13T09:37:25.616Z,19.15
2014-10-13T09:38:30.322Z,19.08
2014-10-13T09:39:35.012Z,18.92
2014-10-13T09:40:39.716Z,18.96
2014-10-13T09:41:44.422Z,18.9
2014-10-13T09:42:49.112Z,18.9
2014-10-13T09:43:53.816Z,18.98
2014-10-13T09:44:58.506Z,19.02
2014-10-13T09:46:03.508Z,19.03
2014-10-13T09:47:08.198Z,19
2014-10-13T09:48:12.903Z,19.08
2014-10-13T09:49:17.593Z,19.14
2014-10-13T09:50:22.299Z,19.12
2014-10-13T09:51:26.987Z,19.07
2014-10-13T09:52:31.692Z,19.18
2014-10-13T09:53:36.383Z,19.16
2014-10-13T09:54:41.088Z,19.36
2014-10-13T09:55:45.793Z,19.35
2014-10-13T09:56:50.483Z,19.3
2014-10-13T09:57:55.188Z,19.18
2014-10-13T09:58:59.876Z,19.04
2014-10-13T10:00:04.581Z,19.04
2014-10-13T10:01:09.584Z,19.04
2014-10-13T10:02:13.586Z,19.02
2014-10-13T10:03:18.291Z,18.91
2014-10-13T10:04:23.278Z,18.86
2014-10-13T10:05:27.967Z,18.94
2014-10-13T10:06:32.516Z,18.84
2014-10-13T10:07:37.221Z,18.84
2014-10-13T10:08:41.912Z,19.01
2014-10-13T10:09:46.617Z,19.28
2014-10-13T10:10:51.321Z,19.26
2014-10-13T10:11:56.011Z,19.4
2014-10-13T10:13:00.717Z,19.44
2014-10-13T10:14:05.405Z,19.29
2014-10-13T10:15:10.111Z,19.16
2014-10-13T10:16:14.816Z,19.25
2014-10-13T10:17:19.506Z,19.07
2014-10-13T10:18:24.211Z,18.94
2014-10-13T10:19:28.901Z,18.78
2014-10-13T10:20:33.606Z,18.96
2014-10-13T10:21:38.373Z,19
2014-10-13T10:22:43.063Z,18.68
2014-10-13T10:23:48.065Z,18.53
2014-10-13T10:24:53.051Z,18.53
2014-10-13T10:25:57.757Z,18.5
2014-10-13T10:27:02.447Z,18.71
2014-10-13T10:28:07.151Z,18.61
2014-10-13T10:29:11.841Z,18.5
2014-10-13T10:30:16.547Z,18.58
2014-10-13T10:31:21.252Z,18.56
2014-10-13T10:32:25.940Z,18.66
2014-10-13T10:33:30.646Z,18.59
2014-10-13T10:34:35.336Z,18.88
2014-10-13T10:35:40.041Z,18.67
2014-10-13T10:36:44.730Z,18.89
2014-10-13T10:37:49.732Z,18.92
2014-10-13T10:38:54.720Z,18.76
2014-10-13T10:39:59.705Z,18.64
2014-10-13T10:41:04.410Z,18.55
2014-10-13T10:42:09.398Z,18.58
2014-10-13T10:43:14.102Z,18.69
2014-10-13T10:44:18.791Z,19.08
2014-10-13T10:45:23.497Z,19.05
2014-10-13T10:46:28.187Z,18.95
2014-10-13T10:47:32.892Z,18.91
2014-10-13T10:48:37.613Z,18.86
2014-10-13T10:49:42.302Z,18.67
2014-10-13T10:50:47.007Z,18.69
2014-10-13T10:51:51.698Z,18.6
2014-10-13T10:52:56.403Z,18.4
2014-10-13T10:54:01.388Z,18.67
2014-10-13T10:55:06.376Z,18.61
2014-10-13T10:56:11.097Z,18.82
2014-10-13T10:57:15.786Z,18.86
2014-10-13T10:58:20.490Z,19.02
2014-10-13T10:59:25.196Z,19.32
2014-10-13T11:00:29.886Z,19.08
2014-10-13T11:01:34.591Z,18.96
2014-10-13T11:02:39.593Z,18.93
2014-10-13T11:03:44.282Z,18.91
2014-10-13T11:04:49.284Z,19.02
2014-10-13T11:05:53.990Z,19.16
2014-10-13T11:06:58.696Z,18.95
2014-10-13T11:08:03.400Z,18.96
2014-10-13T11:09:08.105Z,19.17
2014-10-13T11:10:12.810Z,19.09
2014-10-13T11:11:17.515Z,18.9
2014-10-13T11:12:22.220Z,18.95
2014-10-13T11:13:26.925Z,18.8
2014-10-13T11:14:31.912Z,19.02
2014-10-13T11:15:36.915Z,19.1
2014-10-13T11:16:41.620Z,19.03
2014-10-13T11:17:46.325Z,18.68
2014-10-13T11:18:51.030Z,18.92
2014-10-13T11:19:55.735Z,19.02
2014-10-13T11:21:00.440Z,19
2014-10-13T11:22:05.161Z,18.97
2014-10-13T11:23:09.944Z,19.08
2014-10-13T11:24:14.665Z,18.91
2014-10-13T11:25:19.667Z,19.02
2014-10-13T11:26:24.389Z,18.79
2014-10-13T11:27:29.407Z,18.94
2014-10-13T11:28:33.439Z,18.54
2014-10-13T11:29:38.442Z,18.7
2014-10-13T11:30:43.163Z,18.9
2014-10-13T11:31:48.179Z,18.56
2014-10-13T11:32:53.182Z,18.79
2014-10-13T11:33:57.903Z,18.94
2014-10-13T11:35:02.609Z,18.88
2014-10-13T11:36:06.641Z,18.83
2014-10-13T11:37:11.362Z,18.69
2014-10-13T11:38:16.098Z,19
2014-10-13T11:39:20.819Z,18.96
2014-10-13T11:40:25.524Z,18.88
2014-10-13T11:41:30.229Z,18.76
2014-10-13T11:42:35.231Z,19.09
2014-10-13T11:43:39.953Z,19.36
2014-10-13T11:44:44.657Z,19.58
2014-10-13T11:45:49.379Z,19.3
2014-10-13T11:46:54.099Z,19.42
2014-10-13T11:47:59.086Z,19.41
2014-10-13T11:49:03.791Z,19.23
2014-10-13T11:50:08.825Z,19.19
2014-10-13T11:51:13.828Z,19.36
2014-10-13T11:52:18.829Z,19.44
2014-10-13T11:53:23.832Z,19.4
2014-10-13T11:54:28.536Z,19.28
2014-10-13T11:55:33.242Z,19.2
2014-10-13T11:56:37.963Z,19.22
2014-10-13T11:57:42.949Z,19.28
2014-10-13T11:58:47.670Z,19.3
2014-10-13T11:59:52.375Z,19.24
2014-10-13T12:00:57.096Z,19.35
2014-10-13T12:02:02.082Z,19.4
2014-10-13T12:03:06.787Z,19.52
2014-10-13T12:04:11.508Z,19.34
2014-10-13T12:05:16.213Z,19.43
2014-10-13T12:06:20.935Z,19.28
2014-10-13T12:07:25.639Z,19.18
2014-10-13T12:08:30.642Z,19.18
2014-10-13T12:09:35.363Z,19.02
2014-10-13T12:10:40.364Z,18.93
2014-10-13T12:11:45.367Z,19.12
2014-10-13T12:12:49.383Z,19.23
2014-10-13T12:13:54.385Z,19.29
2014-10-13T12:14:59.685Z,19.3
2014-10-13T12:16:04.390Z,19.36
2014-10-13T12:17:09.095Z,19.48
2014-10-13T12:18:13.800Z,19.54
2014-10-13T12:19:18.521Z,19.56
2014-10-13T12:20:23.523Z,19.51
2014-10-13T12:21:28.525Z,19.28
2014-10-13T12:22:33.230Z,19.46
2014-10-13T12:23:37.935Z,19.62
2014-10-13T12:24:42.656Z,19.67
2014-10-13T12:25:47.361Z,19.73
2014-10-13T12:26:52.380Z,19.67
2014-10-13T12:27:57.381Z,19.95
2014-10-13T12:29:02.384Z,20.02
2014-10-13T12:30:07.089Z,19.76
2014-10-13T12:31:11.793Z,19.92
2014-10-13T12:32:16.531Z,20.06
2014-10-13T12:33:21.236Z,20.1
2014-10-13T12:34:25.941Z,19.96
2014-10-13T12:35:30.662Z,19.83
2014-10-13T12:36:35.665Z,19.94
2014-10-13T12:37:40.384Z,19.81
2014-10-13T12:38:45.105Z,20.02
2014-10-13T12:39:49.810Z,20.04
2014-10-13T12:40:54.532Z,19.96
2014-10-13T12:41:59.534Z,19.81
2014-10-13T12:43:04.239Z,19.33
2014-10-13T12:44:09.241Z,19.18
2014-10-13T12:45:13.945Z,19.37
2014-10-13T12:46:18.979Z,19.51
2014-10-13T12:47:24.278Z,19.26
2014-10-13T12:48:28.983Z,19.4
2014-10-13T12:49:33.985Z,19.71
2014-10-13T12:50:38.691Z,19.78
2014-10-13T12:51:43.693Z,19.9
2014-10-13T12:52:48.398Z,20.17
2014-10-13T12:53:53.401Z,20.09
2014-10-13T12:54:58.106Z,19.94
2014-10-13T12:56:02.827Z,19.81
2014-10-13T12:57:07.829Z,19.94
2014-10-13T12:58:12.534Z,19.88
2014-10-13T12:59:17.254Z,19.86
2014-10-13T13:00:22.241Z,19.76
2014-10-13T13:01:26.962Z,19.82
2014-10-13T13:02:31.667Z,19.84
2014-10-13T13:03:36.372Z,19.85
2014-10-13T13:04:41.374Z,19.83
2014-10-13T13:05:46.126Z,19.92
2014-10-13T13:06:50.832Z,19.88
2014-10-13T13:07:55.850Z,20.01
2014-10-13T13:09:00.555Z,19.85
2014-10-13T13:10:05.260Z,19.9
2014-10-13T13:11:09.965Z,19.85
2014-10-13T13:12:13.998Z,19.81
2014-10-13T13:13:18.985Z,19.78
2014-10-13T13:14:24.283Z,19.76
2014-10-13T13:15:29.004Z,19.77
2014-10-13T13:16:33.709Z,19.73
2014-10-13T13:17:38.430Z,19.63
2014-10-13T13:18:43.135Z,19.7
2014-10-13T13:19:47.856Z,19.76
2014-10-13T13:20:52.562Z,19.84
2014-10-13T13:21:57.282Z,19.62
2014-10-13T13:23:02.066Z,19.59
2014-10-13T13:24:06.787Z,19.67
2014-10-13T13:25:11.492Z,19.38
2014-10-13T13:26:16.510Z,19.5
2014-10-13T13:27:21.512Z,19.58
2014-10-13T13:28:26.232Z,19.63
2014-10-13T13:29:30.937Z,19.62
2014-10-13T13:30:35.658Z,19.58
2014-10-13T13:31:40.363Z,19.58
2014-10-13T13:32:45.068Z,19.5
2014-10-13T13:33:50.070Z,19.38
2014-10-13T13:34:54.776Z,19.36
2014-10-13T13:35:59.496Z,19.03
2014-10-13T13:37:04.201Z,19.12
2014-10-13T13:38:08.236Z,18.87
2014-10-13T13:39:13.238Z,19.12
2014-10-13T13:40:17.958Z,19.02
2014-10-13T13:41:22.664Z,18.91
2014-10-13T13:42:27.383Z,19
2014-10-13T13:43:32.386Z,19.23
2014-10-13T13:44:37.107Z,19.36
2014-10-13T13:45:41.812Z,19.42
2014-10-13T13:46:46.533Z,19.64
2014-10-13T13:47:51.254Z,19.65
2014-10-13T13:48:55.974Z,19.61
2014-10-13T13:50:00.695Z,19.73
2014-10-13T13:51:05.400Z,19.82
2014-10-13T13:52:10.122Z,19.74
2014-10-13T13:53:14.842Z,19.66
2014-10-13T13:54:19.564Z,19.74
2014-10-13T13:55:24.269Z,19.78
2014-10-13T13:56:29.004Z,19.85
2014-10-13T13:57:33.709Z,19.69